Time;durP1;ratioP1;P1;durP2;ratioP2;P2;SDS_P1;SDS_P2;PMS_P1;PMS_P2;Temp;Humidity;BMP_temperature;BMP_pressure;BME280_temperature;BME280_humidity;BME280_pressure;Samples;Min_cycle;Max_cycle;Signal;HPM_P1;HPM_P2
2021/08/07 00:00:14;;;;;;;0.90;0.90;;;;;;;16.61;100.00;99948.16;5070870;28;20541;-71
2021/08/07 00:02:39;;;;;;;0.87;0.77;;;;;;;16.64;100.00;99932.84;5070506;28;20186;-71
2021/08/07 00:05:05;;;;;;;1.00;1.00;;;;;;;16.67;99.72;99912.84;5071151;28;20282;-71
2021/08/07 00:07:30;;;;;;;0.80;0.80;;;;;;;16.71;99.92;99905.41;5070816;28;20262;-71
2021/08/07 00:09:56;;;;;;;1.00;1.00;;;;;;;16.69;99.58;99901.44;5070808;28;20261;-71
2021/08/07 00:12:21;;;;;;;0.80;0.80;;;;;;;16.71;99.10;99885.31;5070750;28;20178;-70
2021/08/07 00:14:47;;;;;;;0.73;0.73;;;;;;;16.71;99.28;99879.78;5069475;28;20594;-70
2021/08/07 00:17:12;;;;;;;0.97;0.97;;;;;;;16.65;99.69;99871.00;5070815;28;20174;-70
2021/08/07 00:19:37;;;;;;;0.60;0.60;;;;;;;16.55;100.00;99869.63;5070737;28;20179;-70
2021/08/07 00:22:06;;;;;;;0.93;0.80;;;;;;;16.49;100.00;99876.63;5070385;28;20170;-70
2021/08/07 00:24:31;;;;;;;4.33;1.00;;;;;;;16.48;100.00;99866.72;5070634;28;20179;-71
2021/08/07 00:26:57;;;;;;;0.80;0.80;;;;;;;16.45;100.00;99850.13;5070668;28;20287;-70
2021/08/07 00:29:22;;;;;;;2.13;0.90;;;;;;;16.44;100.00;99860.34;5069990;28;20178;-71
2021/08/07 00:31:48;;;;;;;0.70;0.70;;;;;;;16.47;100.00;99867.09;5070197;28;20178;-71
2021/08/07 00:34:13;;;;;;;0.80;0.80;;;;;;;16.49;100.00;99870.28;5070464;28;20580;-70
2021/08/07 00:36:40;;;;;;;1.30;0.80;;;;;;;16.49;100.00;99859.25;5070732;28;20261;-71
2021/08/07 00:39:05;;;;;;;0.90;0.90;;;;;;;16.45;100.00;99853.69;5070483;28;20175;-70
2021/08/07 00:41:31;;;;;;;0.70;0.50;;;;;;;16.45;100.00;99863.91;5070197;28;20680;-70
2021/08/07 00:43:56;;;;;;;0.80;0.80;;;;;;;16.43;100.00;99861.53;5070549;28;20186;-70
2021/08/07 00:46:21;;;;;;;0.70;0.70;;;;;;;16.38;100.00;99856.31;5070708;28;20764;-70
2021/08/07 00:48:47;;;;;;;0.90;0.90;;;;;;;16.26;100.00;99845.44;5070203;28;20178;-70
2021/08/07 00:51:12;;;;;;;0.60;0.60;;;;;;;16.26;100.00;99854.50;5070223;28;20182;-70
2021/08/07 00:53:37;;;;;;;0.70;0.70;;;;;;;16.24;100.00;99847.78;5070109;28;20179;-71
2021/08/07 00:56:03;;;;;;;0.70;0.70;;;;;;;16.20;100.00;99847.72;5070211;28;20259;-71
2021/08/07 00:58:29;;;;;;;1.67;1.10;;;;;;;16.23;100.00;99852.47;5070396;28;20206;-70
2021/08/07 01:00:54;;;;;;;0.87;0.73;;;;;;;16.14;100.00;99832.59;5070166;28;20175;-71
2021/08/07 01:03:25;;;;;;;0.90;0.90;;;;;;;16.14;100.00;99837.31;5069777;28;20190;-70
2021/08/07 01:06:15;;;;;;;0.73;0.70;;;;;;;16.19;100.00;99828.75;5070244;28;20258;-71
2021/08/07 01:08:53;;;;;;;2.50;0.80;;;;;;;16.18;100.00;99827.16;5070244;28;20171;-70
2021/08/07 01:11:27;;;;;;;0.77;0.70;;;;;;;16.11;100.00;99816.81;5069980;28;20177;-70
2021/08/07 01:14:02;;;;;;;1.43;0.70;;;;;;;16.05;100.00;99824.53;5070463;28;20169;-71
2021/08/07 01:16:34;;;;;;;1.70;0.80;;;;;;;16.03;100.00;99821.34;5070022;28;20223;-71
2021/08/07 01:19:01;;;;;;;1.70;1.00;;;;;;;15.98;100.00;99849.22;5068740;28;20178;-70
2021/08/07 01:21:33;;;;;;;0.77;0.70;;;;;;;15.98;100.00;99831.88;5069733;28;20174;-71
2021/08/07 01:24:02;;;;;;;1.10;1.00;;;;;;;15.96;100.00;99832.25;5069964;28;20663;-70
2021/08/07 01:26:40;;;;;;;2.53;0.80;;;;;;;15.94;100.00;99836.53;5069752;28;20190;-70
2021/08/07 01:29:06;;;;;;;0.60;0.60;;;;;;;15.89;100.00;99823.03;5070074;28;20170;-71
2021/08/07 01:31:32;;;;;;;0.80;0.80;;;;;;;15.82;100.00;99834.72;5069176;28;20171;-71
2021/08/07 01:33:57;;;;;;;2.10;1.00;;;;;;;15.69;100.00;99836.00;5068492;28;20638;-71
2021/08/07 01:36:23;;;;;;;1.07;0.97;;;;;;;15.53;100.00;99836.03;5069816;28;20247;-71
2021/08/07 01:38:49;;;;;;;0.70;0.70;;;;;;;15.42;100.00;99823.97;5069782;28;20170;-70
2021/08/07 01:41:20;;;;;;;0.90;0.90;;;;;;;15.26;100.00;99848.78;5071589;28;20174;-70
2021/08/07 01:43:46;;;;;;;0.90;0.90;;;;;;;15.13;100.00;99861.81;5073590;28;20261;-71
2021/08/07 01:46:13;;;;;;;2.00;0.93;;;;;;;15.07;100.00;99859.72;5073338;28;20206;-70
2021/08/07 01:48:41;;;;;;;0.73;0.73;;;;;;;15.02;100.00;99857.22;5073206;28;20217;-70
2021/08/07 01:51:17;;;;;;;5.83;0.90;;;;;;;14.94;100.00;99877.47;5073471;28;20181;-70
2021/08/07 01:53:45;;;;;;;0.73;0.73;;;;;;;14.85;100.00;99834.41;5070338;28;20244;-71
2021/08/07 01:56:19;;;;;;;1.20;1.00;;;;;;;14.89;100.00;99831.75;5072919;28;20689;-70
2021/08/07 01:58:48;;;;;;;0.77;0.77;;;;;;;14.93;100.00;99818.91;5073107;28;20182;-70
2021/08/07 02:01:17;;;;;;;1.03;0.90;;;;;;;14.96;100.00;99817.38;5072787;28;20703;-70
2021/08/07 02:03:44;;;;;;;0.83;0.70;;;;;;;14.93;100.00;99816.16;5072969;28;20197;-70
2021/08/07 02:06:10;;;;;;;1.07;0.83;;;;;;;14.87;100.00;99812.84;5072942;28;20555;-70
2021/08/07 02:08:38;;;;;;;0.87;0.87;;;;;;;14.85;100.00;99894.13;5073024;28;20187;-70
2021/08/07 02:11:04;;;;;;;0.80;0.80;;;;;;;14.82;100.00;99826.88;5072926;28;20715;-70
2021/08/07 02:13:32;;;;;;;1.03;0.80;;;;;;;14.87;100.00;99810.09;5072795;28;20274;-70
2021/08/07 02:15:58;;;;;;;0.83;0.83;;;;;;;14.91;100.00;99804.72;5072659;28;20232;-70
2021/08/07 02:18:25;;;;;;;1.83;1.20;;;;;;;14.93;100.00;99810.66;5072844;28;20202;-70
2021/08/07 02:20:53;;;;;;;2.27;0.97;;;;;;;14.95;100.00;99804.78;5072638;28;20178;-70
2021/08/07 02:23:19;;;;;;;0.80;0.70;;;;;;;14.96;100.00;99800.88;5072716;28;20205;-71
2021/08/07 02:25:51;;;;;;;1.80;1.00;;;;;;;14.97;100.00;99799.72;5072689;28;20601;-71
2021/08/07 02:28:16;;;;;;;0.90;0.90;;;;;;;14.95;100.00;99807.53;5072571;28;20756;-70
2021/08/07 02:30:42;;;;;;;0.70;0.70;;;;;;;14.97;100.00;99797.78;5072246;28;20217;-71
2021/08/07 02:33:09;;;;;;;3.80;1.13;;;;;;;14.92;100.00;99831.06;5072531;28;20186;-70
2021/08/07 02:35:36;;;;;;;0.90;0.90;;;;;;;14.89;100.00;99829.00;5072497;28;20170;-70
2021/08/07 02:38:03;;;;;;;2.00;0.80;;;;;;;14.89;100.00;99829.00;5072232;28;20419;-70
2021/08/07 02:40:30;;;;;;;1.40;0.80;;;;;;;14.82;100.00;99799.38;5072643;28;20642;-70
2021/08/07 02:42:56;;;;;;;1.40;0.90;;;;;;;14.84;100.00;99841.06;5072100;28;20680;-70
2021/08/07 02:45:21;;;;;;;0.90;0.90;;;;;;;14.83;100.00;99875.22;5071023;28;20419;-71
2021/08/07 02:47:47;;;;;;;1.10;1.10;;;;;;;14.85;100.00;99830.88;5072193;28;20232;-71
2021/08/07 02:50:14;;;;;;;1.17;1.10;;;;;;;14.95;100.00;99829.53;5072159;28;20178;-70
2021/08/07 02:52:39;;;;;;;1.23;1.10;;;;;;;15.02;100.00;99791.19;5071575;28;20170;-70
2021/08/07 02:55:05;;;;;;;1.03;0.93;;;;;;;14.97;100.00;99780.47;5072001;28;20647;-71
2021/08/07 02:57:31;;;;;;;0.70;0.70;;;;;;;15.00;100.00;99779.75;5071969;28;20184;-71
2021/08/07 03:00:00;;;;;;;1.00;1.00;;;;;;;14.97;100.00;99773.00;5070724;28;20182;-71
2021/08/07 03:02:25;;;;;;;0.93;0.90;;;;;;;14.91;100.00;99768.16;5071603;28;20744;-70
2021/08/07 03:04:51;;;;;;;2.23;1.10;;;;;;;14.87;100.00;99770.78;5071901;28;20173;-71
2021/08/07 03:07:18;;;;;;;0.77;0.77;;;;;;;14.78;100.00;99833.44;5072179;28;20178;-71
2021/08/07 03:09:43;;;;;;;1.03;1.03;;;;;;;14.66;100.00;99837.06;5071785;28;20940;-70
2021/08/07 03:12:09;;;;;;;1.03;0.93;;;;;;;14.50;100.00;99869.25;5071499;28;20187;-71
2021/08/07 03:14:34;;;;;;;0.70;0.70;;;;;;;14.55;100.00;99863.47;5071728;28;20174;-70
2021/08/07 03:16:59;;;;;;;1.10;1.00;;;;;;;14.57;100.00;99877.66;5071574;28;20178;-71
2021/08/07 03:19:25;;;;;;;2.23;1.20;;;;;;;14.58;100.00;99818.78;5071593;28;20182;-71
2021/08/07 03:21:50;;;;;;;1.20;1.10;;;;;;;14.63;100.00;99823.25;5073996;28;20220;-71
2021/08/07 03:24:15;;;;;;;1.30;1.10;;;;;;;14.71;100.00;99814.81;5077502;28;20185;-71
2021/08/07 03:26:41;;;;;;;0.90;0.90;;;;;;;14.74;100.00;99808.59;5072319;28;20222;-71
2021/08/07 03:29:06;;;;;;;1.07;0.97;;;;;;;14.74;100.00;99835.28;5071773;28;20549;-70
2021/08/07 03:31:32;;;;;;;1.23;1.13;;;;;;;14.71;100.00;99847.81;5071286;28;20250;-71
2021/08/07 03:33:58;;;;;;;1.10;1.00;;;;;;;14.82;100.00;99829.63;5071650;28;20166;-71
2021/08/07 03:36:23;;;;;;;1.23;1.13;;;;;;;14.90;100.00;99808.63;5071439;28;20178;-71
2021/08/07 03:38:48;;;;;;;0.80;0.80;;;;;;;14.94;100.00;99805.94;5071761;28;20699;-71
2021/08/07 03:41:14;;;;;;;1.07;0.80;;;;;;;14.82;100.00;99795.81;5071012;28;20637;-71
2021/08/07 03:43:39;;;;;;;0.80;0.80;;;;;;;14.87;100.00;99790.03;5071009;28;20190;-71
2021/08/07 03:46:04;;;;;;;1.00;1.00;;;;;;;14.90;100.00;99792.09;5070916;28;20198;-70
2021/08/07 03:48:30;;;;;;;0.87;0.87;;;;;;;14.76;100.00;99776.06;5070909;28;20665;-70
2021/08/07 03:50:55;;;;;;;1.30;1.20;;;;;;;14.72;100.00;99774.34;5071361;28;20170;-71
2021/08/07 03:53:20;;;;;;;1.20;0.83;;;;;;;14.59;100.00;99773.66;5070957;28;20232;-71
2021/08/07 03:55:46;;;;;;;1.03;0.80;;;;;;;14.72;100.00;99823.84;5070942;28;20171;-70
2021/08/07 03:58:11;;;;;;;3.00;1.10;;;;;;;14.68;100.00;99839.47;5070940;28;20174;-71
2021/08/07 04:00:37;;;;;;;0.80;0.80;;;;;;;14.66;100.00;99798.59;5071021;28;20171;-70
2021/08/07 04:03:03;;;;;;;1.30;1.20;;;;;;;14.69;100.00;99778.63;5069616;28;20221;-70
2021/08/07 04:05:28;;;;;;;1.57;1.00;;;;;;;14.71;100.00;99803.81;5070574;28;20281;-71
2021/08/07 04:08:02;;;;;;;1.17;0.90;;;;;;;14.90;100.00;99805.88;5070598;28;20574;-71
2021/08/07 04:10:27;;;;;;;0.93;0.90;;;;;;;14.79;100.00;99774.53;5070592;28;20285;-71
2021/08/07 04:12:53;;;;;;;1.00;1.00;;;;;;;14.51;100.00;99815.88;5070407;28;20266;-70
2021/08/07 04:15:18;;;;;;;1.00;0.90;;;;;;;14.62;100.00;99792.19;5070892;28;20174;-71
2021/08/07 04:17:43;;;;;;;1.83;1.07;;;;;;;14.62;100.00;99821.66;5070488;28;20174;-71
2021/08/07 04:20:10;;;;;;;0.70;0.70;;;;;;;14.62;100.00;99816.94;5070417;28;20174;-70
2021/08/07 04:22:36;;;;;;;0.80;0.80;;;;;;;14.81;100.00;99803.28;5070173;28;20576;-70
2021/08/07 04:25:03;;;;;;;0.80;0.77;;;;;;;14.85;100.00;99790.41;5070312;28;20197;-70
2021/08/07 04:27:28;;;;;;;1.00;0.90;;;;;;;14.93;100.00;99777.63;5070458;28;20802;-70
2021/08/07 04:29:53;;;;;;;2.07;1.00;;;;;;;14.95;100.00;99778.06;5070798;28;20174;-71
2021/08/07 04:32:19;;;;;;;1.20;0.80;;;;;;;15.02;100.00;99777.44;5069849;28;20713;-71
2021/08/07 04:34:45;;;;;;;0.87;0.87;;;;;;;15.06;100.00;99792.09;5070408;28;20167;-70
2021/08/07 04:37:11;;;;;;;1.20;1.10;;;;;;;15.14;100.00;99780.88;5070573;28;20460;-71
2021/08/07 04:39:36;;;;;;;1.20;1.00;;;;;;;15.17;100.00;99793.13;5070674;28;20206;-71
2021/08/07 04:42:03;;;;;;;0.70;0.70;;;;;;;15.24;100.00;99773.22;5070539;28;20209;-71
2021/08/07 04:44:28;;;;;;;1.03;0.90;;;;;;;15.29;100.00;99770.19;5070204;28;20214;-71
2021/08/07 04:46:53;;;;;;;0.70;0.70;;;;;;;15.25;100.00;99775.63;5070052;28;20614;-71
2021/08/07 04:49:19;;;;;;;0.93;0.73;;;;;;;15.22;100.00;99765.34;5070246;28;20531;-71
2021/08/07 04:51:44;;;;;;;0.93;0.93;;;;;;;15.37;100.00;99772.75;5070049;28;20190;-70
2021/08/07 04:54:12;;;;;;;0.70;0.70;;;;;;;15.40;100.00;99768.47;5070098;28;20228;-70
2021/08/07 04:56:38;;;;;;;1.00;0.80;;;;;;;15.41;100.00;99762.59;5070112;28;20393;-71
2021/08/07 04:59:03;;;;;;;0.90;0.90;;;;;;;15.46;100.00;99761.50;5070114;28;20208;-70
2021/08/07 05:01:29;;;;;;;0.70;0.70;;;;;;;15.51;100.00;99761.25;5070435;28;20231;-70
2021/08/07 05:03:54;;;;;;;1.13;1.13;;;;;;;15.51;100.00;99766.75;5070048;28;20202;-70
2021/08/07 05:06:20;;;;;;;0.77;0.77;;;;;;;15.55;100.00;99844.72;5069967;28;20532;-71
2021/08/07 05:08:45;;;;;;;0.80;0.80;;;;;;;15.63;100.00;99818.97;5070036;28;20212;-70
2021/08/07 05:11:10;;;;;;;0.90;0.80;;;;;;;15.65;100.00;99800.13;5069863;28;20179;-72
2021/08/07 05:13:36;;;;;;;1.13;0.97;;;;;;;15.69;100.00;99786.44;5069746;28;20626;-71
2021/08/07 05:16:02;;;;;;;0.60;0.60;;;;;;;15.71;100.00;99781.34;5071995;28;20710;-70
2021/08/07 05:18:27;;;;;;;1.07;0.80;;;;;;;15.78;100.00;99773.25;5073611;28;20197;-71
2021/08/07 05:20:52;;;;;;;0.80;0.80;;;;;;;15.81;100.00;104641.91;5073648;28;20548;-71
2021/08/07 05:23:18;;;;;;;0.60;0.60;;;;;;;15.80;100.00;105680.06;5073457;28;20503;-71
2021/08/07 05:25:43;;;;;;;0.63;0.63;;;;;;;15.87;100.00;103038.78;5073715;28;20221;-71
2021/08/07 05:28:08;;;;;;;0.70;0.60;;;;;;;15.91;100.00;103479.13;5073554;28;20173;-71
2021/08/07 05:30:34;;;;;;;0.60;0.60;;;;;;;15.93;100.00;104136.03;5073160;28;20249;-71
2021/08/07 05:32:59;;;;;;;2.30;1.00;;;;;;;15.92;100.00;102785.09;5071837;28;20265;-70
2021/08/07 05:35:24;;;;;;;0.50;0.50;;;;;;;15.94;100.00;102610.00;5073315;28;20206;-71
2021/08/07 05:37:50;;;;;;;0.83;0.83;;;;;;;15.99;100.00;103177.97;5073288;28;20174;-71
2021/08/07 05:40:15;;;;;;;0.80;0.80;;;;;;;16.10;100.00;101303.66;5073830;28;20178;-71
2021/08/07 05:42:41;;;;;;;0.87;0.60;;;;;;;16.14;100.00;100763.47;5072885;28;20171;-71
2021/08/07 05:45:07;;;;;;;0.73;0.73;;;;;;;16.14;100.00;101618.94;5073155;28;20175;-71
2021/08/07 05:47:33;;;;;;;0.57;0.50;;;;;;;16.20;100.00;101729.88;5071981;28;20662;-71
2021/08/07 05:49:58;;;;;;;1.20;0.70;;;;;;;16.24;95.90;101623.34;5073414;28;20178;-71
2021/08/07 05:52:25;;;;;;;0.67;0.63;;;;;;;16.28;100.00;100736.38;5072817;28;20197;-71
2021/08/07 05:54:51;;;;;;;2.40;0.80;;;;;;;16.40;100.00;100708.81;5068911;28;20174;-71
2021/08/07 05:57:17;;;;;;;0.50;0.50;;;;;;;16.46;100.00;100616.41;5073346;28;20202;-71
2021/08/07 05:59:42;;;;;;;1.87;0.80;;;;;;;16.48;100.00;100547.91;5073124;28;20190;-71
2021/08/07 06:02:08;;;;;;;0.60;0.60;;;;;;;16.53;100.00;100517.34;5072822;28;20174;-71
2021/08/07 06:04:33;;;;;;;1.27;0.60;;;;;;;16.59;99.95;100515.94;5072988;28;20186;-71
2021/08/07 06:06:58;;;;;;;1.60;0.80;;;;;;;16.62;100.00;100487.66;5073150;28;20209;-71
2021/08/07 06:09:25;;;;;;;0.50;0.50;;;;;;;16.67;99.40;100500.44;5073047;28;20170;-71
2021/08/07 06:11:50;;;;;;;1.80;0.70;;;;;;;16.70;98.67;101363.38;5072689;28;20205;-71
2021/08/07 06:14:16;;;;;;;1.00;0.60;;;;;;;16.73;97.27;100592.03;5073248;28;20214;-71
2021/08/07 06:16:41;;;;;;;0.57;0.57;;;;;;;16.73;98.58;100316.13;5073020;28;20190;-70
2021/08/07 06:19:07;;;;;;;0.77;0.60;;;;;;;16.77;99.20;100022.59;5072895;28;20206;-70
2021/08/07 06:21:32;;;;;;;0.50;0.50;;;;;;;16.84;98.09;99669.56;5072962;28;20305;-71
2021/08/07 06:23:58;;;;;;;0.67;0.63;;;;;;;16.89;97.48;99608.53;5072711;28;20239;-71
2021/08/07 06:26:25;;;;;;;0.60;0.57;;;;;;;16.96;96.95;99536.09;5071777;28;20697;-71
2021/08/07 06:28:50;;;;;;;0.60;0.60;;;;;;;17.02;97.83;99539.31;5072777;28;20232;-71
2021/08/07 06:31:16;;;;;;;0.50;0.50;;;;;;;17.09;97.29;99547.69;5072408;28;20622;-71
2021/08/07 06:33:41;;;;;;;1.17;1.07;;;;;;;17.19;97.51;99544.22;5072525;28;20504;-71
2021/08/07 06:36:07;;;;;;;0.30;0.30;;;;;;;17.25;96.19;99546.28;5072388;28;20559;-71
2021/08/07 06:38:33;;;;;;;1.03;0.63;;;;;;;17.27;94.65;99554.19;5072531;28;20646;-71
2021/08/07 06:40:58;;;;;;;0.80;0.63;;;;;;;17.33;94.86;99543.59;5072450;28;20188;-71
2021/08/07 06:43:23;;;;;;;0.77;0.73;;;;;;;17.43;95.21;99535.41;5072327;28;20174;-70
2021/08/07 06:45:49;;;;;;;0.60;0.60;;;;;;;17.54;94.78;99539.09;5072267;28;20239;-71
2021/08/07 06:48:14;;;;;;;0.57;0.57;;;;;;;17.66;94.13;99537.22;5072333;28;20235;-71
2021/08/07 06:50:39;;;;;;;0.60;0.60;;;;;;;17.72;93.59;99539.25;5072063;28;20247;-71
2021/08/07 06:53:05;;;;;;;2.87;0.53;;;;;;;17.73;91.65;99540.84;5072005;28;20201;-71
2021/08/07 06:55:30;;;;;;;0.70;0.70;;;;;;;17.72;91.60;99552.28;5071987;28;20177;-71
2021/08/07 06:57:56;;;;;;;6.13;1.27;;;;;;;17.76;90.92;99547.56;5071349;28;20174;-72
2021/08/07 07:00:22;;;;;;;1.37;0.70;;;;;;;17.78;91.41;99539.69;5070217;28;20260;-71
2021/08/07 07:02:47;;;;;;;0.47;0.47;;;;;;;17.88;91.44;99533.47;5071285;28;20181;-72
2021/08/07 07:05:12;;;;;;;0.90;0.70;;;;;;;17.89;89.91;99528.75;5071414;28;20205;-71
2021/08/07 07:07:39;;;;;;;0.23;0.23;;;;;;;17.93;87.40;99529.56;5071563;28;20197;-71
2021/08/07 07:10:08;;;;;;;0.50;0.50;;;;;;;18.02;88.66;99530.81;5071304;28;20232;-71
2021/08/07 07:12:34;;;;;;;0.50;0.43;;;;;;;18.11;87.70;99509.16;5069061;28;20538;-71
2021/08/07 07:14:59;;;;;;;0.33;0.20;;;;;;;18.19;87.16;99515.53;5071407;28;20182;-71
2021/08/07 07:17:25;;;;;;;0.83;0.60;;;;;;;18.23;86.91;99505.31;5071738;28;20705;-71
2021/08/07 07:19:50;;;;;;;0.70;0.70;;;;;;;18.33;88.12;99523.13;5071237;28;20163;-71
2021/08/07 07:22:16;;;;;;;0.60;0.60;;;;;;;18.45;88.36;99533.88;5070751;28;20178;-72
2021/08/07 07:24:41;;;;;;;0.60;0.60;;;;;;;18.60;84.40;99531.97;5071564;28;20173;-71
2021/08/07 07:27:07;;;;;;;0.30;0.30;;;;;;;18.61;82.68;99484.53;5071170;28;20700;-71
2021/08/07 07:29:33;;;;;;;1.40;0.60;;;;;;;18.60;82.68;99864.78;5068391;28;20301;-71
2021/08/07 07:31:58;;;;;;;0.50;0.50;;;;;;;18.58;83.50;99877.41;5070691;28;20171;-71
2021/08/07 07:34:24;;;;;;;0.87;0.60;;;;;;;18.59;83.66;99849.34;5071020;28;20205;-71
2021/08/07 07:36:49;;;;;;;2.00;0.40;;;;;;;18.59;85.28;99935.13;5070993;28;20174;-71
2021/08/07 07:39:15;;;;;;;0.70;0.70;;;;;;;18.59;85.98;99874.25;5071416;28;20171;-71
2021/08/07 07:41:40;;;;;;;1.03;0.60;;;;;;;18.68;87.71;99833.28;5071484;28;20202;-71
2021/08/07 07:44:05;;;;;;;0.67;0.67;;;;;;;18.64;83.93;99815.03;5071186;28;20257;-71
2021/08/07 07:46:33;;;;;;;0.57;0.50;;;;;;;18.53;83.17;99825.97;5071146;28;20198;-72
2021/08/07 07:48:58;;;;;;;0.73;0.60;;;;;;;18.53;84.40;99797.53;5070548;28;20171;-70
2021/08/07 07:51:23;;;;;;;0.50;0.50;;;;;;;18.63;85.16;99797.63;5070891;28;20524;-71
2021/08/07 07:53:49;;;;;;;0.60;0.60;;;;;;;18.70;84.77;99800.47;5071192;28;20257;-71
2021/08/07 07:56:27;;;;;;;1.93;1.10;;;;;;;18.86;85.57;99802.97;5071330;28;20255;-72
2021/08/07 07:58:53;;;;;;;0.53;0.53;;;;;;;18.96;83.18;99801.50;5069707;28;20291;-72
2021/08/07 08:01:18;;;;;;;3.90;0.67;;;;;;;18.98;84.68;99788.84;5069323;28;20278;-71
2021/08/07 08:03:43;;;;;;;1.10;0.40;;;;;;;18.95;82.66;99781.31;5070574;28;20385;-72
2021/08/07 08:06:09;;;;;;;1.77;0.60;;;;;;;18.84;81.28;99765.81;5070902;28;20199;-71
2021/08/07 08:08:35;;;;;;;1.13;0.63;;;;;;;18.84;82.78;99760.25;5071000;28;20642;-71
2021/08/07 08:11:01;;;;;;;0.50;0.50;;;;;;;18.76;80.88;99758.59;5070646;28;20198;-71
2021/08/07 08:13:26;;;;;;;0.70;0.50;;;;;;;18.71;82.72;99759.75;5070769;28;20249;-71
2021/08/07 08:15:52;;;;;;;1.07;0.60;;;;;;;18.80;84.71;99740.03;5070576;28;20510;-71
2021/08/07 08:18:17;;;;;;;0.60;0.60;;;;;;;18.93;84.90;99733.81;5070331;28;20191;-71
2021/08/07 08:20:42;;;;;;;1.33;0.60;;;;;;;19.18;83.86;99738.72;5070830;28;20174;-71
2021/08/07 08:23:08;;;;;;;0.57;0.50;;;;;;;19.35;83.92;99734.47;5070536;28;20562;-71
2021/08/07 08:25:34;;;;;;;1.10;0.60;;;;;;;19.46;82.67;99719.50;5070506;28;20262;-71
2021/08/07 08:27:59;;;;;;;0.67;0.60;;;;;;;19.58;81.58;99719.19;5070596;28;20182;-71
2021/08/07 08:30:26;;;;;;;1.53;0.70;;;;;;;19.60;80.10;99714.03;5070543;28;20406;-71
2021/08/07 08:32:52;;;;;;;0.53;0.53;;;;;;;19.61;79.59;99707.31;5070437;28;20243;-71
2021/08/07 08:35:18;;;;;;;0.50;0.50;;;;;;;19.57;79.58;99692.66;5070499;28;20179;-71
2021/08/07 08:37:43;;;;;;;0.50;0.50;;;;;;;19.37;81.56;99685.81;5070858;28;20359;-71
2021/08/07 08:40:09;;;;;;;0.97;0.40;;;;;;;19.41;82.12;99683.06;5070325;28;20178;-71
2021/08/07 08:42:34;;;;;;;0.60;0.60;;;;;;;19.59;82.39;99690.28;5070190;28;20171;-71
2021/08/07 08:45:00;;;;;;;0.40;0.40;;;;;;;19.76;81.75;99693.50;5070283;28;20224;-71
2021/08/07 08:47:26;;;;;;;0.80;0.80;;;;;;;19.75;80.09;99681.63;5070485;28;20171;-71
2021/08/07 08:49:53;;;;;;;0.67;0.67;;;;;;;19.76;80.27;99679.66;5072201;28;20249;-71
2021/08/07 08:52:23;;;;;;;0.67;0.67;;;;;;;19.78;79.24;99696.66;5074262;28;20224;-71
2021/08/07 08:54:49;;;;;;;0.60;0.60;;;;;;;19.92;80.89;99672.53;5074563;28;20685;-71
2021/08/07 08:57:14;;;;;;;0.60;0.60;;;;;;;20.12;80.76;99675.75;5074492;28;20170;-71
2021/08/07 08:59:40;;;;;;;0.70;0.67;;;;;;;20.21;75.13;99672.59;5074320;28;20579;-72
2021/08/07 09:02:05;;;;;;;0.60;0.60;;;;;;;20.28;75.05;99667.06;5074097;28;20579;-71
2021/08/07 09:04:30;;;;;;;4.53;0.80;;;;;;;20.22;75.66;99651.97;5074105;28;20186;-71
2021/08/07 09:06:56;;;;;;;0.50;0.50;;;;;;;20.30;76.49;99652.78;5073938;28;20205;-71
2021/08/07 09:09:45;;;;;;;1.90;0.70;;;;;;;20.59;75.89;99651.59;5074250;28;20166;-71
2021/08/07 09:12:12;;;;;;;1.03;0.70;;;;;;;20.91;76.55;99656.31;5072609;28;20166;-71
2021/08/07 09:14:40;;;;;;;0.87;0.80;;;;;;;21.01;73.50;99686.84;5074067;28;20171;-71
2021/08/07 09:17:18;;;;;;;0.60;0.60;;;;;;;21.08;75.10;99625.69;5073938;28;20178;-71
2021/08/07 09:19:43;;;;;;;0.50;0.40;;;;;;;20.99;74.70;99616.22;5073953;28;20233;-71
2021/08/07 09:22:22;;;;;;;0.73;0.73;;;;;;;20.97;73.93;99618.59;5076064;28;20206;-71
2021/08/07 09:25:05;;;;;;;2.20;0.70;;;;;;;20.98;76.02;99612.66;5083676;28;20253;-71
2021/08/07 09:27:41;;;;;;;3.20;0.87;;;;;;;21.10;76.87;99614.19;5075117;28;20736;-72
2021/08/07 09:30:18;;;;;;;0.70;0.67;;;;;;;21.12;73.34;99602.66;5074225;28;20166;-71
2021/08/07 09:32:48;;;;;;;1.30;0.90;;;;;;;21.22;73.51;99601.84;5074144;28;20222;-71
2021/08/07 09:35:16;;;;;;;0.67;0.67;;;;;;;21.24;73.89;99603.00;5073696;28;20171;-71
2021/08/07 09:37:42;;;;;;;0.67;0.67;;;;;;;21.20;74.85;99590.34;5073708;28;20721;-72
2021/08/07 09:40:10;;;;;;;0.70;0.50;;;;;;;21.18;72.58;99578.84;5073709;28;20210;-71
2021/08/07 09:42:52;;;;;;;1.07;0.63;;;;;;;21.07;72.57;99565.00;5073513;28;20179;-71
2021/08/07 09:45:23;;;;;;;1.43;0.70;;;;;;;21.04;72.65;99563.03;5073507;28;20175;-71
2021/08/07 09:48:03;;;;;;;1.37;0.70;;;;;;;21.31;71.71;99563.31;5073469;28;20221;-71
2021/08/07 09:50:30;;;;;;;0.90;0.60;;;;;;;21.43;71.21;99559.28;5073243;28;20274;-73
2021/08/07 09:52:57;;;;;;;0.67;0.67;;;;;;;21.50;73.28;99550.88;5072526;28;20210;-72
2021/08/07 09:55:23;;;;;;;0.80;0.40;;;;;;;21.45;71.03;99545.78;5073148;28;20625;-72
2021/08/07 09:58:07;;;;;;;1.80;0.57;;;;;;;21.57;72.40;99551.66;5072936;28;20183;-72
2021/08/07 10:00:41;;;;;;;0.50;0.43;;;;;;;21.69;70.08;99536.44;5071815;28;20190;-73
2021/08/07 10:03:21;;;;;;;0.50;0.50;;;;;;;21.74;70.79;99549.16;5072550;28;20191;-73
2021/08/07 10:05:48;;;;;;;0.40;0.33;;;;;;;21.74;69.12;99544.38;5071522;28;20212;-72
2021/08/07 10:08:14;;;;;;;0.53;0.50;;;;;;;21.70;68.43;99532.50;5072514;28;20522;-72
2021/08/07 10:10:42;;;;;;;0.63;0.40;;;;;;;21.86;66.46;99535.53;5072780;28;20189;-74
2021/08/07 10:13:08;;;;;;;0.43;0.43;;;;;;;21.88;65.80;99524.00;5072428;28;20186;-74
2021/08/07 10:15:36;;;;;;;1.80;0.50;;;;;;;21.75;67.62;99525.69;5072763;28;20179;-74
2021/08/07 10:18:02;;;;;;;0.97;0.50;;;;;;;21.91;68.73;99537.09;5072872;28;20229;-71
2021/08/07 10:20:28;;;;;;;0.83;0.53;;;;;;;21.95;69.48;99530.28;5072846;28;20174;-72
2021/08/07 10:22:54;;;;;;;1.20;0.50;;;;;;;21.97;71.33;99536.22;5072678;28;20186;-72
2021/08/07 10:25:22;;;;;;;0.50;0.50;;;;;;;22.11;70.67;99654.19;5072712;28;20207;-72
2021/08/07 10:27:50;;;;;;;1.40;0.80;;;;;;;22.01;69.32;99535.41;5072839;28;20176;-72
2021/08/07 10:30:16;;;;;;;0.70;0.60;;;;;;;21.99;68.59;99533.06;5072413;28;20176;-72
2021/08/07 10:32:45;;;;;;;0.73;0.40;;;;;;;22.13;70.22;99534.91;5072673;28;20175;-71
2021/08/07 10:35:11;;;;;;;0.53;0.50;;;;;;;22.23;67.09;99525.69;5072719;28;20495;-72
2021/08/07 10:37:38;;;;;;;1.10;0.40;;;;;;;22.36;69.95;99528.75;5072510;28;20174;-71
2021/08/07 10:40:06;;;;;;;0.43;0.20;;;;;;;22.37;65.39;99538.66;5072532;28;20180;-71
2021/08/07 10:42:33;;;;;;;0.27;0.27;;;;;;;22.18;64.69;99520.59;5072161;28;20175;-72
2021/08/07 10:45:00;;;;;;;0.40;0.40;;;;;;;22.30;65.69;99508.94;5072444;28;20561;-71
2021/08/07 10:47:45;;;;;;;0.70;0.50;;;;;;;22.60;67.01;99511.00;5072350;28;20203;-72
2021/08/07 10:50:25;;;;;;;0.60;0.60;;;;;;;22.76;63.65;99513.19;5072359;28;20179;-72
2021/08/07 10:52:55;;;;;;;0.80;0.60;;;;;;;22.72;61.41;99515.22;5072568;28;20170;-71
2021/08/07 10:55:50;;;;;;;0.50;0.50;;;;;;;22.76;62.48;99496.47;5072290;28;20634;-71
2021/08/07 10:58:37;;;;;;;0.20;0.20;;;;;;;22.68;62.16;99497.75;5072198;28;20655;-71
2021/08/07 11:01:24;;;;;;;0.63;0.40;;;;;;;22.70;61.79;99503.69;5072079;28;20701;-72
2021/08/07 11:04:02;;;;;;;0.70;0.53;;;;;;;22.71;60.68;99499.69;5072015;28;20262;-71
2021/08/07 11:06:42;;;;;;;1.33;0.57;;;;;;;22.83;60.35;99494.41;5071855;28;20198;-71
2021/08/07 11:09:14;;;;;;;0.50;0.50;;;;;;;22.71;61.33;99483.81;5071887;28;20166;-72
2021/08/07 11:11:39;;;;;;;0.30;0.30;;;;;;;22.45;60.85;99465.81;5071593;28;20226;-71
2021/08/07 11:14:26;;;;;;;0.90;0.50;;;;;;;22.38;60.01;99460.31;5071534;28;20643;-72
2021/08/07 11:17:06;;;;;;;0.63;0.47;;;;;;;22.52;62.76;99460.16;5069378;28;20688;-71
2021/08/07 11:19:54;;;;;;;0.70;0.40;;;;;;;22.51;61.88;99439.09;5065176;28;20202;-71
2021/08/07 11:22:39;;;;;;;0.60;0.60;;;;;;;22.52;62.91;99442.66;5071383;28;20182;-71
2021/08/07 11:25:11;;;;;;;0.73;0.40;;;;;;;22.52;62.48;99421.16;5071610;28;20635;-71
2021/08/07 11:30:30;;;;;;;0.67;0.60;;;;;;;23.05;61.21;99436.41;5071103;28;20178;-72
2021/08/07 11:32:55;;;;;;;0.70;0.70;;;;;;;23.15;59.55;99434.69;5071268;28;20162;-71